createdAt,value
2017-03-06T00:00:15.429Z,92.8
2017-03-06T00:01:15.450Z,92.61
2017-03-06T00:02:15.486Z,92.99
2017-03-06T00:03:15.512Z,92.9
2017-03-06T00:04:15.547Z,92.99
2017-03-06T00:05:15.569Z,92.52
2017-03-06T00:06:15.598Z,92.61
2017-03-06T00:07:15.629Z,93.08
2017-03-06T00:08:15.654Z,93.75
2017-03-06T00:09:15.685Z,93.46
2017-03-06T00:10:15.712Z,94.13
2017-03-06T00:11:15.741Z,94.32
2017-03-06T00:12:15.767Z,94.13
2017-03-06T00:13:15.795Z,94.7
2017-03-06T00:14:15.824Z,94.89
2017-03-06T00:15:15.851Z,94.51
2017-03-06T00:16:15.879Z,94.89
2017-03-06T00:17:15.908Z,94.51
2017-03-06T00:18:15.937Z,94.51
2017-03-06T00:19:15.967Z,94.79
2017-03-06T00:20:15.992Z,95.03
2017-03-06T00:21:16.021Z,95.27
2017-03-06T00:22:16.048Z,95.12
2017-03-06T00:23:16.076Z,95.5
2017-03-06T00:24:16.105Z,95.98
2017-03-06T00:25:16.152Z,95.41
2017-03-06T00:26:16.149Z,95.12
2017-03-06T00:27:16.190Z,96.17
2017-03-06T00:28:16.209Z,95.69
2017-03-06T00:29:16.247Z,95.69
2017-03-06T00:30:16.273Z,95.88
2017-03-06T00:31:16.299Z,96.08
2017-03-06T00:32:16.325Z,96.36
2017-03-06T00:33:16.356Z,96.26
2017-03-06T00:34:16.386Z,96.55
2017-03-06T00:35:16.412Z,96.64
2017-03-06T00:36:16.444Z,96.73
2017-03-06T00:37:16.474Z,96.64
2017-03-06T00:38:16.497Z,97.12
2017-03-06T00:39:16.527Z,97.31
2017-03-06T00:40:16.553Z,97.5
2017-03-06T00:41:16.581Z,97.69
2017-03-06T00:42:16.606Z,98.25
2017-03-06T00:43:16.635Z,98.07
2017-03-06T00:44:16.648Z,98.3
2017-03-06T00:45:16.690Z,98.21
2017-03-06T00:46:16.720Z,98.3
2017-03-06T00:47:16.750Z,98.39
2017-03-06T00:48:16.777Z,98.49
2017-03-06T00:49:16.799Z,98.77
2017-03-06T00:50:16.830Z,99.63
2017-03-06T00:51:16.856Z,99.53
2017-03-06T00:52:16.889Z,99.82
2017-03-06T00:53:16.915Z,99.72
2017-03-06T00:54:16.939Z,99.53
2017-03-06T00:55:17.240Z,99.82
2017-03-06T00:56:16.997Z,99.91
2017-03-06T00:57:17.023Z,99.99
2017-03-06T00:58:17.050Z,99.99
2017-03-06T00:59:17.080Z,99.99
2017-03-06T01:00:17.111Z,99.99
2017-03-06T01:01:17.137Z,99.86
2017-03-06T01:02:17.162Z,99.96
2017-03-06T01:03:17.189Z,99.77
2017-03-06T01:04:17.220Z,99.48
2017-03-06T01:05:17.246Z,99.99
2017-03-06T01:06:17.274Z,99.99
2017-03-06T01:07:17.297Z,99.99
2017-03-06T01:08:17.332Z,99.99
2017-03-06T01:09:17.344Z,99.99
2017-03-06T01:10:17.683Z,99.99
2017-03-06T01:11:17.466Z,99.99
2017-03-06T01:12:17.438Z,99.99
2017-03-06T01:13:17.465Z,99.99
2017-03-06T01:14:17.492Z,99.99
2017-03-06T01:15:17.520Z,99.99
2017-03-06T01:16:17.551Z,99.99
2017-03-06T01:17:17.578Z,99.99
2017-03-06T01:18:17.605Z,99.99
2017-03-06T01:19:17.629Z,99.99
2017-03-06T01:20:17.657Z,99.99
2017-03-06T01:21:17.687Z,99.99
2017-03-06T01:22:31.835Z,99.99
2017-03-06T01:23:31.849Z,99.99
2017-03-06T01:24:31.860Z,99.99
2017-03-06T01:25:31.904Z,99.99
2017-03-06T01:26:31.942Z,99.99
2017-03-06T01:27:31.958Z,99.99
2017-03-06T01:28:31.983Z,99.99
2017-03-06T01:29:32.011Z,99.99
2017-03-06T01:30:32.039Z,99.99
2017-03-06T01:31:32.064Z,99.99
2017-03-06T01:32:32.094Z,99.99
2017-03-06T01:33:32.138Z,99.99
2017-03-06T01:34:32.150Z,99.99
2017-03-06T01:35:32.177Z,99.99
2017-03-06T01:36:32.203Z,99.99
2017-03-06T01:37:32.220Z,99.99
2017-03-06T01:38:32.260Z,99.99
2017-03-06T01:39:32.283Z,99.99
2017-03-06T01:40:32.310Z,99.99
2017-03-06T01:41:32.338Z,99.99
2017-03-06T01:42:32.367Z,99.99
2017-03-06T01:43:32.391Z,99.99
2017-03-06T01:44:32.409Z,99.99
2017-03-06T01:45:32.449Z,99.99
2017-03-06T01:46:32.479Z,99.99
2017-03-06T01:47:32.499Z,99.99
2017-03-06T01:48:32.531Z,99.99
2017-03-06T01:49:32.558Z,99.99
2017-03-06T01:50:32.582Z,99.99
2017-03-06T01:51:32.612Z,99.99
2017-03-06T01:52:32.636Z,99.99
2017-03-06T01:53:32.663Z,99.99
2017-03-06T01:54:32.691Z,99.99
2017-03-06T01:55:32.718Z,99.99
2017-03-06T01:56:32.747Z,99.99
2017-03-06T01:57:32.758Z,99.99
2017-03-06T01:58:32.800Z,99.99
2017-03-06T01:59:32.826Z,99.99
2017-03-06T02:00:32.855Z,99.99
2017-03-06T02:01:32.883Z,99.99
2017-03-06T02:02:32.908Z,99.99
2017-03-06T02:03:32.939Z,99.99
2017-03-06T02:04:32.964Z,99.99
2017-03-06T02:05:32.989Z,99.99
2017-03-06T02:06:33.019Z,99.99
2017-03-06T02:07:33.047Z,99.99
2017-03-06T02:08:33.072Z,99.99
2017-03-06T02:09:33.096Z,99.99
2017-03-06T02:10:33.126Z,99.99
2017-03-06T02:11:33.161Z,99.99
2017-03-06T02:12:33.180Z,99.99
2017-03-06T02:13:33.210Z,99.99
2017-03-06T02:14:33.233Z,99.99
2017-03-06T02:15:33.260Z,99.99
2017-03-06T02:16:33.286Z,99.99
2017-03-06T02:17:33.314Z,99.99
2017-03-06T02:18:33.341Z,99.99
2017-03-06T02:19:33.365Z,99.99
2017-03-06T02:20:33.394Z,99.99
2017-03-06T02:21:33.419Z,99.99
2017-03-06T02:22:33.450Z,99.99
2017-03-06T02:23:33.475Z,99.99
2017-03-06T02:24:33.502Z,99.99
2017-03-06T02:25:33.528Z,99.99
2017-03-06T02:26:33.557Z,99.99
2017-03-06T02:27:33.583Z,99.99
2017-03-06T02:28:33.612Z,99.99
2017-03-06T02:29:33.638Z,99.99
2017-03-06T02:30:33.663Z,99.99
2017-03-06T02:31:33.690Z,99.99
2017-03-06T02:32:33.718Z,99.99
2017-03-06T02:33:33.744Z,99.99
2017-03-06T02:34:33.769Z,99.99
2017-03-06T02:35:33.796Z,99.99
2017-03-06T02:36:33.823Z,99.99
2017-03-06T02:37:33.852Z,99.99
2017-03-06T02:38:33.877Z,99.99
2017-03-06T02:39:33.907Z,99.99
2017-03-06T02:40:33.935Z,99.99
2017-03-06T02:41:33.961Z,99.99
2017-03-06T02:42:33.988Z,99.99
2017-03-06T02:43:34.013Z,99.99
2017-03-06T02:44:34.040Z,99.99
2017-03-06T02:45:34.067Z,99.99
2017-03-06T02:46:34.089Z,99.99
2017-03-06T02:47:34.123Z,99.99
2017-03-06T02:48:34.147Z,99.99
2017-03-06T02:49:34.175Z,99.99
2017-03-06T02:50:34.203Z,99.99
2017-03-06T02:51:34.229Z,99.99
2017-03-06T02:52:34.257Z,99.99
2017-03-06T02:53:34.283Z,99.99
2017-03-06T02:54:34.308Z,99.99
2017-03-06T02:55:34.330Z,99.99
2017-03-06T02:56:34.362Z,99.99
2017-03-06T02:57:34.390Z,99.99
2017-03-06T02:58:34.418Z,99.99
2017-03-06T02:59:34.445Z,99.99
2017-03-06T03:00:34.472Z,99.99
2017-03-06T03:01:34.497Z,99.99
2017-03-06T03:02:34.526Z,99.99
2017-03-06T03:03:34.553Z,99.99
2017-03-06T03:04:34.581Z,99.99
2017-03-06T03:05:34.607Z,99.99
2017-03-06T03:06:34.630Z,99.99
2017-03-06T03:07:34.662Z,99.99
2017-03-06T03:08:34.686Z,99.99
2017-03-06T03:09:34.711Z,99.99
2017-03-06T03:10:34.738Z,99.99
2017-03-06T03:11:34.764Z,99.99
2017-03-06T03:12:34.794Z,99.99
2017-03-06T03:13:34.820Z,99.99
2017-03-06T03:14:34.847Z,99.99
2017-03-06T03:15:34.875Z,99.99
2017-03-06T03:16:34.899Z,99.99
2017-03-06T03:17:34.925Z,99.99
2017-03-06T03:18:34.951Z,99.99
2017-03-06T03:19:34.980Z,99.99
2017-03-06T03:20:35.009Z,99.99
2017-03-06T03:21:35.032Z,99.99
2017-03-06T03:22:35.062Z,99.99
2017-03-06T03:23:35.087Z,99.99
2017-03-06T03:24:35.114Z,99.99
2017-03-06T03:25:35.143Z,99.99
2017-03-06T03:26:35.167Z,99.99
2017-03-06T03:27:35.194Z,99.99
2017-03-06T03:28:35.220Z,99.99
2017-03-06T03:29:35.232Z,99.99
2017-03-06T03:30:35.273Z,99.99
2017-03-06T03:31:35.300Z,99.99
2017-03-06T03:32:35.326Z,99.99
2017-03-06T03:33:35.354Z,99.99
2017-03-06T03:34:35.377Z,99.99
2017-03-06T03:35:35.406Z,99.99
2017-03-06T03:36:35.433Z,99.99
2017-03-06T03:37:35.457Z,99.99
2017-03-06T03:38:35.488Z,99.99
2017-03-06T03:39:35.515Z,99.99
2017-03-06T03:40:35.542Z,99.99
2017-03-06T03:41:35.565Z,99.99
2017-03-06T03:42:35.590Z,99.99
2017-03-06T03:43:35.604Z,99.99
2017-03-06T03:44:35.646Z,99.99
2017-03-06T03:45:35.672Z,99.99
2017-03-06T03:46:35.695Z,99.99
2017-03-06T03:47:35.727Z,99.99
2017-03-06T03:48:35.749Z,99.99
2017-03-06T03:49:35.777Z,99.99
2017-03-06T03:50:35.804Z,99.99
2017-03-06T03:51:35.830Z,99.99
2017-03-06T03:52:35.856Z,99.99
2017-03-06T03:53:35.882Z,99.99
2017-03-06T03:54:35.909Z,99.99
2017-03-06T03:55:35.934Z,99.99
2017-03-06T03:56:35.962Z,99.99
2017-03-06T03:57:35.987Z,99.99
2017-03-06T03:58:36.013Z,99.99
2017-03-06T03:59:36.040Z,99.99
2017-03-06T04:00:36.066Z,99.99
2017-03-06T04:01:36.092Z,99.99
2017-03-06T04:02:36.122Z,99.99
2017-03-06T04:03:36.150Z,99.99
2017-03-06T04:04:36.175Z,99.99
2017-03-06T04:05:36.197Z,99.99
2017-03-06T04:06:36.224Z,99.99
2017-03-06T04:07:36.253Z,99.99
2017-03-06T04:08:36.278Z,99.99
2017-03-06T04:09:36.303Z,99.99
2017-03-06T04:10:36.330Z,99.99
2017-03-06T04:11:36.357Z,99.99
2017-03-06T04:12:36.381Z,99.99
2017-03-06T04:13:36.410Z,99.99
2017-03-06T04:14:36.434Z,99.99
2017-03-06T04:15:36.461Z,99.99
2017-03-06T04:16:36.489Z,99.99
2017-03-06T04:17:36.514Z,99.99
2017-03-06T04:18:36.542Z,99.99
2017-03-06T04:19:36.564Z,99.99
2017-03-06T04:20:36.590Z,99.99
2017-03-06T04:21:36.618Z,99.99
2017-03-06T04:22:36.647Z,99.99
2017-03-06T04:23:36.672Z,99.99
2017-03-06T04:24:36.699Z,99.99
2017-03-06T04:25:36.723Z,99.99
2017-03-06T04:26:36.754Z,99.99
2017-03-06T04:27:36.775Z,99.99
2017-03-06T04:28:36.806Z,99.99
2017-03-06T04:29:36.831Z,99.99
2017-03-06T04:30:36.861Z,99.99
2017-03-06T04:31:36.882Z,99.99
2017-03-06T04:32:36.909Z,99.99
2017-03-06T04:33:36.938Z,99.99
2017-03-06T04:34:36.964Z,99.99
2017-03-06T04:35:36.988Z,99.99
2017-03-06T04:36:37.016Z,99.99
2017-03-06T04:37:37.042Z,99.99
2017-03-06T04:38:37.065Z,99.99
2017-03-06T04:39:37.092Z,99.99
2017-03-06T04:40:37.119Z,99.99
2017-03-06T04:41:37.150Z,99.99
2017-03-06T04:42:37.160Z,99.99
2017-03-06T04:43:37.199Z,99.99
2017-03-06T04:44:37.227Z,99.99
2017-03-06T04:45:37.253Z,99.99
2017-03-06T04:46:37.280Z,99.99
2017-03-06T04:47:37.305Z,99.99
2017-03-06T04:48:37.332Z,99.99
2017-03-06T04:49:37.361Z,99.99
2017-03-06T04:50:37.386Z,99.99
2017-03-06T04:51:37.412Z,99.99
2017-03-06T04:52:37.440Z,99.99
2017-03-06T04:53:37.466Z,99.99
2017-03-06T04:54:37.489Z,99.99
2017-03-06T04:55:37.519Z,99.99
2017-03-06T04:56:37.543Z,99.99
2017-03-06T04:57:37.566Z,99.99
2017-03-06T04:58:37.595Z,99.99
2017-03-06T04:59:37.621Z,99.99
2017-03-06T05:00:37.667Z,99.99
2017-03-06T05:01:37.689Z,99.99
2017-03-06T05:02:37.717Z,99.99
2017-03-06T05:03:37.770Z,99.99
2017-03-06T05:04:37.769Z,99.99
2017-03-06T05:05:37.823Z,99.99
2017-03-06T05:06:37.820Z,99.99
2017-03-06T05:07:37.849Z,99.99
2017-03-06T05:08:37.867Z,99.99
2017-03-06T05:09:37.926Z,99.99
2017-03-06T05:10:37.951Z,99.99
2017-03-06T05:11:37.981Z,99.99
2017-03-06T05:12:37.968Z,99.99
2017-03-06T05:13:38.033Z,99.99
2017-03-06T05:14:38.033Z,99.99
2017-03-06T05:15:38.059Z,99.99
2017-03-06T05:16:38.089Z,99.99
2017-03-06T05:17:38.112Z,99.99
2017-03-06T05:18:38.165Z,99.99
2017-03-06T05:19:38.185Z,99.99
2017-03-06T05:20:38.217Z,99.99
2017-03-06T05:21:38.218Z,99.99
2017-03-06T05:22:38.245Z,99.99
2017-03-06T05:23:38.268Z,99.99
2017-03-06T05:24:38.297Z,99.99
2017-03-06T05:25:38.322Z,99.99
2017-03-06T05:26:38.374Z,99.99
2017-03-06T05:27:38.368Z,99.99
2017-03-06T05:28:38.401Z,99.99
2017-03-06T05:29:38.419Z,99.99
2017-03-06T05:30:38.481Z,99.99
2017-03-06T05:31:38.478Z,99.99
2017-03-06T05:32:38.509Z,99.99
2017-03-06T05:33:38.559Z,99.99
2017-03-06T05:34:38.584Z,99.99
2017-03-06T05:35:38.609Z,99.99
2017-03-06T05:36:38.612Z,99.99
2017-03-06T05:37:38.640Z,99.99
2017-03-06T05:38:38.655Z,99.99
2017-03-06T05:39:38.691Z,99.99
2017-03-06T05:40:38.739Z,99.99
2017-03-06T05:41:38.771Z,99.99
2017-03-06T05:42:38.770Z,99.99
2017-03-06T05:43:38.789Z,99.99
2017-03-06T05:44:38.821Z,99.99
2017-03-06T05:45:38.875Z,99.99
2017-03-06T05:46:38.866Z,99.99
2017-03-06T05:47:38.927Z,99.99
2017-03-06T05:48:38.928Z,99.99
2017-03-06T05:49:38.983Z,99.99
2017-03-06T05:50:38.979Z,99.99
2017-03-06T05:51:39.040Z,99.99
2017-03-06T05:52:39.059Z,99.99
2017-03-06T05:53:39.068Z,99.99
2017-03-06T05:54:39.111Z,99.99
2017-03-06T05:55:39.113Z,99.99
2017-03-06T05:56:39.176Z,99.99
2017-03-06T05:57:39.162Z,99.99
2017-03-06T05:58:39.192Z,99.99
2017-03-06T05:59:39.253Z,99.99
2017-03-06T06:00:39.273Z,99.99
2017-03-06T06:01:39.270Z,99.99
2017-03-06T06:02:39.324Z,99.99
2017-03-06T06:03:39.319Z,99.99
2017-03-06T06:04:39.379Z,99.99
2017-03-06T06:05:39.378Z,99.99
2017-03-06T06:06:39.427Z,99.99
2017-03-06T06:07:39.456Z,99.99
2017-03-06T06:08:39.458Z,99.99
2017-03-06T06:09:39.479Z,99.99
2017-03-06T06:10:39.509Z,99.99
2017-03-06T06:11:39.563Z,99.99
2017-03-06T06:12:39.592Z,99.99
2017-03-06T06:13:39.580Z,99.99
2017-03-06T06:14:39.648Z,99.99
2017-03-06T06:15:39.642Z,99.99
2017-03-06T06:16:39.696Z,99.99
2017-03-06T06:17:39.723Z,99.99
2017-03-06T06:18:39.719Z,99.99
2017-03-06T06:19:39.777Z,99.99
2017-03-06T06:20:39.777Z,99.99
2017-03-06T06:21:39.828Z,99.99
2017-03-06T06:22:39.832Z,99.99
2017-03-06T06:23:39.884Z,99.99
2017-03-06T06:24:39.883Z,99.99
2017-03-06T06:25:39.908Z,99.99
2017-03-06T06:26:39.938Z,99.99
2017-03-06T06:27:39.991Z,99.99
2017-03-06T06:28:39.985Z,99.99
2017-03-06T06:29:40.044Z,99.99
2017-03-06T06:30:40.069Z,99.99
2017-03-06T06:31:40.073Z,99.99
2017-03-06T06:32:40.127Z,99.99
2017-03-06T06:33:40.124Z,99.99
2017-03-06T06:34:40.178Z,99.99
2017-03-06T06:35:40.167Z,99.99
2017-03-06T06:36:40.229Z,99.99
2017-03-06T06:37:40.234Z,99.99
2017-03-06T06:38:40.283Z,99.99
2017-03-06T06:39:40.277Z,99.99
2017-03-06T06:40:40.313Z,99.63
2017-03-06T06:41:40.339Z,99.06
2017-03-06T06:42:40.394Z,98.54
2017-03-06T06:43:40.384Z,98.07
2017-03-06T06:44:40.420Z,98.25
2017-03-06T06:45:40.447Z,97.5
2017-03-06T06:46:40.501Z,97.5
2017-03-06T06:47:40.528Z,97.69
2017-03-06T06:48:40.531Z,97.69
2017-03-06T06:49:40.559Z,97.4
2017-03-06T06:50:40.587Z,97.12
2017-03-06T06:51:40.612Z,96.64
2017-03-06T06:52:40.664Z,96.92
2017-03-06T06:53:40.691Z,96.73
2017-03-06T06:54:40.693Z,96.73
2017-03-06T06:55:40.744Z,97.02
2017-03-06T06:56:40.748Z,97.02
2017-03-06T06:57:40.776Z,96.64
2017-03-06T06:58:40.793Z,96.17
2017-03-06T06:59:41.754Z,95.88
2017-03-06T07:00:41.498Z,96.08
2017-03-06T07:01:41.485Z,95.79
2017-03-06T07:02:41.534Z,95.69
2017-03-06T07:03:41.579Z,95.5
2017-03-06T07:04:41.602Z,94.93
2017-03-06T07:05:41.638Z,95.03
2017-03-06T07:06:41.639Z,94.74
2017-03-06T07:07:41.691Z,95.22
2017-03-06T07:08:41.679Z,95.5
2017-03-06T07:09:41.734Z,95.31
2017-03-06T07:10:41.743Z,95.6
2017-03-06T07:11:41.800Z,95.03
2017-03-06T07:12:41.789Z,95.22
2017-03-06T07:13:41.833Z,94.93
2017-03-06T07:14:41.888Z,94.74
2017-03-06T07:15:41.887Z,95.22
2017-03-06T07:16:41.912Z,95.5
2017-03-06T07:17:41.996Z,95.6
2017-03-06T07:18:41.988Z,95.88
2017-03-06T07:19:41.983Z,95.31
2017-03-06T07:20:42.031Z,95.69
2017-03-06T07:21:42.088Z,95.31
2017-03-06T07:22:42.089Z,95.22
2017-03-06T07:23:42.086Z,95.88
2017-03-06T07:24:42.120Z,95.69
2017-03-06T07:25:42.180Z,95.27
2017-03-06T07:26:42.206Z,95.07
2017-03-06T07:27:42.209Z,94.89
2017-03-06T07:28:42.264Z,94.89
2017-03-06T07:29:42.288Z,94.42
2017-03-06T07:30:42.388Z,94.32
2017-03-06T07:31:42.319Z,94.51
2017-03-06T07:32:42.395Z,94.32
2017-03-06T07:33:42.400Z,94.23
2017-03-06T07:34:42.383Z,93.75
2017-03-06T07:35:42.560Z,93.46
2017-03-06T07:36:42.463Z,93.37
2017-03-06T07:37:42.477Z,92.42
2017-03-06T07:38:42.538Z,93.13
2017-03-06T07:39:42.593Z,93.13
2017-03-06T07:40:42.588Z,92.09
2017-03-06T07:41:42.585Z,91.42
2017-03-06T07:42:42.633Z,91.14
2017-03-06T07:43:42.659Z,92.09
2017-03-06T07:44:42.707Z,91.33
2017-03-06T07:45:42.736Z,90.71
2017-03-06T07:46:42.775Z,90.05
2017-03-06T07:47:42.785Z,88.24
2017-03-06T07:48:42.786Z,87.05
2017-03-06T07:49:42.840Z,86.95
2017-03-06T07:50:42.854Z,86.38
2017-03-06T07:51:42.896Z,85.86
2017-03-06T07:52:42.908Z,85.38
2017-03-06T07:53:42.988Z,84.33
2017-03-06T07:54:42.988Z,83.48
2017-03-06T07:55:42.986Z,82.57
2017-03-06T07:56:43.031Z,82.19
2017-03-06T07:57:43.085Z,80.99
2017-03-06T07:58:43.088Z,80.61
2017-03-06T07:59:43.144Z,80.04
2017-03-06T08:00:43.164Z,79.03
2017-03-06T08:01:43.233Z,79.13
2017-03-06T08:02:43.238Z,78.56
2017-03-06T08:03:43.266Z,77.61
2017-03-06T08:04:43.292Z,77.51
2017-03-06T08:05:43.307Z,77.51
2017-03-06T08:06:43.326Z,77.7
2017-03-06T08:07:43.350Z,78.27
2017-03-06T08:08:43.405Z,79.28
2017-03-06T08:09:43.591Z,79.57
2017-03-06T08:10:43.447Z,80.23
2017-03-06T08:11:43.496Z,80.29
2017-03-06T08:12:43.519Z,80.86
2017-03-06T08:13:43.582Z,81.14
2017-03-06T08:14:43.598Z,81.24
2017-03-06T08:15:43.616Z,81.62
2017-03-06T08:16:43.671Z,82.48
2017-03-06T08:17:43.693Z,82.09
2017-03-06T08:18:43.708Z,82.76
2017-03-06T08:19:43.739Z,82.81
2017-03-06T08:20:43.773Z,83
2017-03-06T08:21:43.784Z,82.62
2017-03-06T08:22:43.841Z,83.19
2017-03-06T08:23:43.866Z,83.29
2017-03-06T08:24:43.879Z,83.19
2017-03-06T08:25:43.922Z,83.76
2017-03-06T08:26:43.925Z,83.95
2017-03-06T08:27:43.984Z,84.24
2017-03-06T08:28:43.986Z,84.33
2017-03-06T08:29:44.025Z,83.76
2017-03-06T08:30:44.053Z,83.76
2017-03-06T08:31:44.089Z,84.05
2017-03-06T08:32:44.118Z,84.05
2017-03-06T08:33:44.152Z,84.81
2017-03-06T08:34:44.200Z,84.72
2017-03-06T08:35:44.217Z,84.81
2017-03-06T08:36:44.244Z,84.72
2017-03-06T08:37:44.293Z,85.28
2017-03-06T08:38:44.294Z,85.47
2017-03-06T08:39:44.354Z,85.28
2017-03-06T08:40:44.384Z,84.91
2017-03-06T08:41:44.379Z,85
2017-03-06T08:42:44.485Z,84.86
2017-03-06T08:43:44.453Z,84.81
2017-03-06T08:44:44.507Z,84.81
2017-03-06T08:45:44.519Z,85.19
2017-03-06T08:46:44.554Z,85.1
2017-03-06T08:47:44.586Z,85.19
2017-03-06T08:48:44.604Z,85.57
2017-03-06T08:49:44.648Z,85.28
2017-03-06T08:50:44.688Z,84.72
2017-03-06T08:51:44.699Z,84.38
2017-03-06T08:52:44.739Z,84.19
2017-03-06T08:53:44.781Z,84.38
2017-03-06T08:54:44.786Z,83.52
2017-03-06T08:55:44.810Z,83.42
2017-03-06T08:56:44.845Z,83.9
2017-03-06T08:57:44.906Z,83.42
2017-03-06T08:58:44.909Z,83.42
2017-03-06T08:59:45.198Z,83.33
2017-03-06T09:00:44.998Z,83.04
2017-03-06T09:01:45.002Z,82.76
2017-03-06T09:02:45.088Z,81.95
2017-03-06T09:03:45.084Z,81.56
2017-03-06T09:04:45.089Z,81.28
2017-03-06T09:05:45.123Z,80.99
2017-03-06T09:06:45.181Z,80.75
2017-03-06T09:07:45.204Z,79.89
2017-03-06T09:08:45.522Z,79.32
2017-03-06T09:09:45.597Z,78.75
2017-03-06T09:10:45.304Z,78.75
2017-03-06T09:11:45.310Z,78.94
2017-03-06T09:12:45.396Z,78.98
2017-03-06T09:13:45.397Z,78.69
2017-03-06T09:14:45.394Z,78.59
2017-03-06T09:15:45.465Z,78.75
2017-03-06T09:16:45.489Z,78.94
2017-03-06T09:17:45.490Z,78.75
2017-03-06T09:18:45.532Z,79.41
2017-03-06T09:19:45.618Z,79.41
2017-03-06T09:20:45.597Z,80.23
2017-03-06T09:21:45.628Z,80.71
2017-03-06T09:22:45.655Z,80.9
2017-03-06T09:23:45.711Z,80.9
2017-03-06T09:24:45.716Z,80.8
2017-03-06T09:25:45.817Z,81.18
2017-03-06T09:26:45.815Z,81.28
2017-03-06T09:27:45.819Z,81.37
2017-03-06T09:28:45.875Z,81.47
2017-03-06T09:29:45.903Z,81.56
2017-03-06T09:30:45.898Z,81.47
2017-03-06T09:31:45.935Z,81.66
2017-03-06T09:32:46.111Z,81.56
2017-03-06T09:33:46.019Z,81.56
2017-03-06T09:34:46.040Z,81.76
2017-03-06T09:35:46.101Z,82.23
2017-03-06T09:36:46.117Z,82.32
2017-03-06T09:37:46.165Z,82.51
2017-03-06T09:38:46.187Z,82.61
2017-03-06T09:39:46.493Z,82.9
2017-03-06T09:40:46.211Z,82.8
2017-03-06T09:41:46.311Z,83.52
2017-03-06T09:42:46.306Z,83.42
2017-03-06T09:43:46.294Z,83.71
2017-03-06T09:44:46.401Z,83.71
2017-03-06T09:45:46.374Z,84.28
2017-03-06T09:46:46.417Z,84.09
2017-03-06T09:47:46.472Z,83.9
2017-03-06T09:48:46.483Z,83.81
2017-03-06T09:49:46.518Z,83.81
2017-03-06T09:50:46.530Z,83.81
2017-03-06T09:51:46.574Z,84.09
2017-03-06T09:52:46.596Z,84.38
2017-03-06T09:53:46.651Z,84.38
2017-03-06T09:54:46.712Z,84.38
2017-03-06T09:55:46.706Z,84.28
2017-03-06T09:56:46.700Z,84.38
2017-03-06T09:57:46.766Z,84.56
2017-03-06T09:58:46.800Z,84.66
2017-03-06T09:59:46.825Z,85.04
2017-03-06T10:00:46.827Z,84.95
2017-03-06T10:01:46.889Z,85.42
2017-03-06T10:02:46.889Z,85.61
2017-03-06T10:03:46.953Z,85.99
2017-03-06T10:04:46.975Z,86.33
2017-03-06T10:05:47.002Z,86.52
2017-03-06T10:06:47.015Z,86.8
2017-03-06T10:07:47.099Z,87.09
2017-03-06T10:08:47.110Z,87.47
2017-03-06T10:09:47.090Z,87.28
2017-03-06T10:10:47.147Z,87.85
2017-03-06T10:11:47.218Z,88.23
2017-03-06T10:12:47.193Z,88.13
2017-03-06T10:13:47.231Z,88.8
2017-03-06T10:14:47.282Z,89.18
2017-03-06T10:15:47.306Z,89.94
2017-03-06T10:16:47.348Z,89.66
2017-03-06T10:17:47.353Z,89.28
2017-03-06T10:18:47.395Z,89
2017-03-06T10:19:47.415Z,89.18
2017-03-06T10:20:47.460Z,89.09
2017-03-06T10:21:47.460Z,89
2017-03-06T10:22:47.503Z,88.46
2017-03-06T10:23:47.521Z,88.66
2017-03-06T10:24:47.553Z,88.46
2017-03-06T10:25:47.594Z,88.46
2017-03-06T10:26:47.599Z,88.37
2017-03-06T10:27:47.658Z,87.61
2017-03-06T10:28:47.670Z,87.8
2017-03-06T10:29:47.702Z,87.52
2017-03-06T10:30:47.761Z,87.13
2017-03-06T10:31:47.783Z,87.04
2017-03-06T10:32:47.825Z,87.99
2017-03-06T10:33:47.838Z,88.46
2017-03-06T10:34:47.845Z,88.61
2017-03-06T10:35:47.885Z,88.61
2017-03-06T10:36:47.928Z,88.33
2017-03-06T10:37:47.950Z,89.18
2017-03-06T10:38:47.966Z,88.71
2017-03-06T10:39:48.008Z,89.28
2017-03-06T10:40:48.060Z,89.28
2017-03-06T10:41:48.088Z,89.47
2017-03-06T10:42:48.116Z,89.47
2017-03-06T10:43:48.111Z,89
2017-03-06T10:44:48.186Z,88.9
2017-03-06T10:45:48.219Z,89.37
2017-03-06T10:46:48.209Z,89.18
2017-03-06T10:47:48.271Z,89.37
2017-03-06T10:48:48.282Z,89.47
2017-03-06T10:49:48.330Z,89
2017-03-06T10:50:48.355Z,88.9
2017-03-06T10:51:48.384Z,88.33
2017-03-06T10:52:48.413Z,88.61
2017-03-06T10:53:48.410Z,88.52
2017-03-06T10:54:48.470Z,88.61
2017-03-06T10:55:48.504Z,88.8
2017-03-06T10:56:48.509Z,88.8
2017-03-06T10:57:48.541Z,89
2017-03-06T10:58:48.572Z,89.18
2017-03-06T10:59:48.632Z,89.28
2017-03-06T11:00:48.634Z,89.37
2017-03-06T11:01:48.709Z,89.47
2017-03-06T11:02:48.709Z,89.18
2017-03-06T11:03:48.711Z,88.75
2017-03-06T11:04:48.759Z,88.56
2017-03-06T11:05:48.805Z,88.18
2017-03-06T11:06:48.815Z,87.61
2017-03-06T11:07:48.878Z,87.42
2017-03-06T11:08:48.866Z,87.04
2017-03-06T11:09:48.925Z,87.52
2017-03-06T11:10:49.053Z,86.99
2017-03-06T11:11:48.971Z,86.42
2017-03-06T11:12:49.018Z,85.18
2017-03-06T11:13:49.011Z,85.66
2017-03-06T11:14:49.043Z,85.66
2017-03-06T11:15:49.101Z,85.28
2017-03-06T11:16:49.128Z,85.94
2017-03-06T11:17:49.158Z,85.99
2017-03-06T11:18:49.227Z,86.18
2017-03-06T11:19:49.223Z,86.65
2017-03-06T11:20:49.221Z,85.51
2017-03-06T11:21:49.271Z,84.36
2017-03-06T11:22:49.287Z,84.75
2017-03-06T11:23:49.338Z,84.27
2017-03-06T11:24:49.351Z,83.8
2017-03-06T11:25:49.407Z,83.41
2017-03-06T11:26:49.405Z,83.41
2017-03-06T11:27:49.453Z,84.36
2017-03-06T11:28:49.495Z,84.56
2017-03-06T11:29:49.535Z,84.94
2017-03-06T11:30:49.844Z,85.22
2017-03-06T11:31:49.573Z,84.56
2017-03-06T11:32:49.631Z,84.41
2017-03-06T11:33:49.624Z,83.93
2017-03-06T11:34:49.665Z,84.65
2017-03-06T11:35:49.678Z,85.13
2017-03-06T11:36:49.711Z,85.22
2017-03-06T11:37:49.775Z,85.51
2017-03-06T11:38:49.804Z,85.6
2017-03-06T11:39:49.812Z,85.41
2017-03-06T11:40:49.848Z,85.22
2017-03-06T11:41:49.895Z,85.66
2017-03-06T11:42:49.930Z,86.75
2017-03-06T11:43:49.952Z,86.8
2017-03-06T11:44:50.006Z,86.9
2017-03-06T11:45:50.015Z,86.99
2017-03-06T11:46:50.020Z,86.9
2017-03-06T11:47:50.063Z,87.08
2017-03-06T11:48:50.120Z,87.94
2017-03-06T11:49:50.136Z,88.89
2017-03-06T11:50:50.159Z,89.08
2017-03-06T11:51:50.193Z,89.65
2017-03-06T11:52:50.210Z,90.03
2017-03-06T11:53:50.244Z,89.94
2017-03-06T11:54:50.282Z,90.32
2017-03-06T11:55:50.319Z,90.51
2017-03-06T11:56:50.343Z,90.8
2017-03-06T11:57:50.379Z,90.61
2017-03-06T11:58:50.431Z,91.08
2017-03-06T11:59:50.468Z,91.51
2017-03-06T12:00:50.469Z,91.56
2017-03-06T12:01:50.514Z,92.32
2017-03-06T12:02:50.514Z,92.03
2017-03-06T12:03:50.562Z,91.37
2017-03-06T12:04:50.618Z,90.99
2017-03-06T12:05:50.617Z,90.8
2017-03-06T12:06:50.658Z,91.17
2017-03-06T12:07:50.716Z,90.61
2017-03-06T12:08:50.734Z,90.32
2017-03-06T12:09:50.749Z,90.51
2017-03-06T12:10:50.778Z,90.03
2017-03-06T12:11:50.835Z,89.61
2017-03-06T12:12:50.841Z,89.89
2017-03-06T12:13:50.872Z,88.18
2017-03-06T12:14:50.924Z,87.32
2017-03-06T12:15:50.944Z,87.13
2017-03-06T12:16:50.994Z,87.41
2017-03-06T12:17:51.022Z,87.23
2017-03-06T12:18:51.051Z,88.13
2017-03-06T12:19:51.048Z,88.04
2017-03-06T12:20:51.086Z,88.7
2017-03-06T12:21:51.118Z,88.7
2017-03-06T12:22:51.205Z,88.04
2017-03-06T12:23:51.198Z,88.23
2017-03-06T12:24:51.224Z,87.65
2017-03-06T12:25:51.300Z,87.65
2017-03-06T12:26:51.285Z,87.94
2017-03-06T12:27:51.323Z,88.23
2017-03-06T12:28:51.336Z,88.13
2017-03-06T12:29:51.382Z,88.04
2017-03-06T12:30:51.389Z,88.7
2017-03-06T12:31:51.425Z,88.6
2017-03-06T12:32:51.486Z,89.37
2017-03-06T12:33:51.563Z,89.37
2017-03-06T12:34:51.548Z,89.47
2017-03-06T12:35:51.655Z,89.32
2017-03-06T12:36:51.608Z,88.85
2017-03-06T12:37:51.636Z,89.23
2017-03-06T12:38:51.635Z,89.61
2017-03-06T12:39:51.712Z,89.61
2017-03-06T12:40:51.822Z,90.28
2017-03-06T12:41:51.755Z,90.66
2017-03-06T12:42:51.767Z,90.75
2017-03-06T12:43:51.792Z,90.75
2017-03-06T12:44:51.842Z,90.94
2017-03-06T12:45:51.856Z,90.37
2017-03-06T12:46:51.916Z,90.42
2017-03-06T12:47:51.920Z,91.03
2017-03-06T12:48:51.945Z,90.61
2017-03-06T12:49:51.977Z,91.08
2017-03-06T12:50:52.038Z,90.89
2017-03-06T12:51:52.031Z,91.08
2017-03-06T12:52:52.089Z,91.37
2017-03-06T12:53:52.116Z,91.66
2017-03-06T12:54:52.144Z,91.37